sensor_id;sensor_type;location;lat;lon;timestamp;P1;durP1;ratioP1;P2;durP2;ratioP2
26377;SDS011;14078;50.974;6.786;2023-06-10T00:02:16;8.60;;;6.47;;
26377;SDS011;14078;50.974;6.786;2023-06-10T00:04:45;6.13;;;5.53;;
26377;SDS011;14078;50.974;6.786;2023-06-10T00:07:12;6.57;;;5.97;;
26377;SDS011;14078;50.974;6.786;2023-06-10T00:09:39;6.65;;;5.95;;
26377;SDS011;14078;50.974;6.786;2023-06-10T00:12:06;7.25;;;6.30;;
26377;SDS011;14078;50.974;6.786;2023-06-10T00:14:38;6.40;;;5.68;;
26377;SDS011;14078;50.974;6.786;2023-06-10T00:17:05;6.82;;;6.13;;
26377;SDS011;14078;50.974;6.786;2023-06-10T00:19:34;6.97;;;6.13;;
26377;SDS011;14078;50.974;6.786;2023-06-10T00:22:03;6.78;;;6.18;;
26377;SDS011;14078;50.974;6.786;2023-06-10T00:24:29;7.20;;;6.15;;
26377;SDS011;14078;50.974;6.786;2023-06-10T00:26:56;7.03;;;6.32;;
26377;SDS011;14078;50.974;6.786;2023-06-10T00:29:23;6.82;;;5.88;;
26377;SDS011;14078;50.974;6.786;2023-06-10T00:31:49;6.95;;;6.35;;
26377;SDS011;14078;50.974;6.786;2023-06-10T00:34:18;6.93;;;6.20;;
26377;SDS011;14078;50.974;6.786;2023-06-10T00:39:13;8.25;;;6.47;;
26377;SDS011;14078;50.974;6.786;2023-06-10T00:41:40;7.43;;;6.65;;
26377;SDS011;14078;50.974;6.786;2023-06-10T00:44:07;6.90;;;6.20;;
26377;SDS011;14078;50.974;6.786;2023-06-10T00:46:33;6.50;;;5.85;;
26377;SDS011;14078;50.974;6.786;2023-06-10T00:49:00;7.22;;;5.80;;
26377;SDS011;14078;50.974;6.786;2023-06-10T00:51:27;7.07;;;5.88;;
26377;SDS011;14078;50.974;6.786;2023-06-10T00:53:54;7.10;;;6.50;;
26377;SDS011;14078;50.974;6.786;2023-06-10T00:56:22;7.00;;;5.75;;
26377;SDS011;14078;50.974;6.786;2023-06-10T00:58:50;6.60;;;6.00;;
26377;SDS011;14078;50.974;6.786;2023-06-10T01:01:16;6.63;;;5.85;;
26377;SDS011;14078;50.974;6.786;2023-06-10T01:03:45;6.63;;;5.40;;
26377;SDS011;14078;50.974;6.786;2023-06-10T01:06:14;7.25;;;6.20;;
26377;SDS011;14078;50.974;6.786;2023-06-10T01:08:50;6.35;;;5.75;;
26377;SDS011;14078;50.974;6.786;2023-06-10T01:11:25;6.38;;;5.70;;
26377;SDS011;14078;50.974;6.786;2023-06-10T01:14:00;6.82;;;6.13;;
26377;SDS011;14078;50.974;6.786;2023-06-10T01:16:26;7.22;;;6.13;;
26377;SDS011;14078;50.974;6.786;2023-06-10T01:18:53;6.70;;;5.65;;
26377;SDS011;14078;50.974;6.786;2023-06-10T01:21:22;6.57;;;5.78;;
26377;SDS011;14078;50.974;6.786;2023-06-10T01:23:49;5.80;;;5.30;;
26377;SDS011;14078;50.974;6.786;2023-06-10T01:26:17;7.53;;;6.28;;
26377;SDS011;14078;50.974;6.786;2023-06-10T01:28:48;6.55;;;5.95;;
26377;SDS011;14078;50.974;6.786;2023-06-10T01:31:20;7.70;;;6.10;;
26377;SDS011;14078;50.974;6.786;2023-06-10T01:33:59;11.55;;;6.57;;
26377;SDS011;14078;50.974;6.786;2023-06-10T01:36:28;6.10;;;5.55;;
26377;SDS011;14078;50.974;6.786;2023-06-10T01:38:57;6.72;;;6.00;;
26377;SDS011;14078;50.974;6.786;2023-06-10T01:41:26;6.22;;;5.63;;
26377;SDS011;14078;50.974;6.786;2023-06-10T01:43:53;7.85;;;6.28;;
26377;SDS011;14078;50.974;6.786;2023-06-10T01:46:20;7.07;;;6.38;;
26377;SDS011;14078;50.974;6.786;2023-06-10T01:48:47;5.78;;;5.22;;
26377;SDS011;14078;50.974;6.786;2023-06-10T01:51:14;6.97;;;6.28;;
26377;SDS011;14078;50.974;6.786;2023-06-10T01:53:42;7.20;;;5.90;;
26377;SDS011;14078;50.974;6.786;2023-06-10T01:56:09;7.32;;;6.60;;
26377;SDS011;14078;50.974;6.786;2023-06-10T01:58:41;16.55;;;6.10;;
26377;SDS011;14078;50.974;6.786;2023-06-10T02:01:08;7.28;;;6.20;;
26377;SDS011;14078;50.974;6.786;2023-06-10T02:03:35;6.95;;;6.25;;
26377;SDS011;14078;50.974;6.786;2023-06-10T02:06:01;6.53;;;5.93;;
26377;SDS011;14078;50.974;6.786;2023-06-10T02:08:28;5.78;;;5.28;;
26377;SDS011;14078;50.974;6.786;2023-06-10T02:10:56;6.53;;;5.65;;
26377;SDS011;14078;50.974;6.786;2023-06-10T02:13:23;6.47;;;5.72;;
26377;SDS011;14078;50.974;6.786;2023-06-10T02:15:50;5.75;;;5.25;;
26377;SDS011;14078;50.974;6.786;2023-06-10T02:18:18;7.38;;;5.35;;
26377;SDS011;14078;50.974;6.786;2023-06-10T02:20:45;6.03;;;4.97;;
26377;SDS011;14078;50.974;6.786;2023-06-10T02:23:12;6.30;;;5.78;;
26377;SDS011;14078;50.974;6.786;2023-06-10T02:25:39;8.23;;;6.50;;
26377;SDS011;14078;50.974;6.786;2023-06-10T02:28:07;6.50;;;5.82;;
26377;SDS011;14078;50.974;6.786;2023-06-10T02:30:33;6.28;;;5.65;;
26377;SDS011;14078;50.974;6.786;2023-06-10T02:33:00;6.88;;;5.68;;
26377;SDS011;14078;50.974;6.786;2023-06-10T02:35:27;6.30;;;5.60;;
26377;SDS011;14078;50.974;6.786;2023-06-10T02:37:54;7.10;;;6.40;;
26377;SDS011;14078;50.974;6.786;2023-06-10T02:40:20;7.68;;;6.18;;
26377;SDS011;14078;50.974;6.786;2023-06-10T02:42:47;6.88;;;6.20;;
26377;SDS011;14078;50.974;6.786;2023-06-10T02:45:15;6.90;;;6.18;;
26377;SDS011;14078;50.974;6.786;2023-06-10T02:47:42;6.85;;;5.90;;
26377;SDS011;14078;50.974;6.786;2023-06-10T02:50:09;6.43;;;5.82;;
26377;SDS011;14078;50.974;6.786;2023-06-10T02:52:35;7.55;;;6.80;;
26377;SDS011;14078;50.974;6.786;2023-06-10T02:55:02;6.70;;;6.05;;
26377;SDS011;14078;50.974;6.786;2023-06-10T02:57:29;6.10;;;5.50;;
26377;SDS011;14078;50.974;6.786;2023-06-10T02:59:56;6.78;;;6.18;;
26377;SDS011;14078;50.974;6.786;2023-06-10T03:02:24;7.32;;;6.07;;
26377;SDS011;14078;50.974;6.786;2023-06-10T03:04:53;6.57;;;5.97;;
26377;SDS011;14078;50.974;6.786;2023-06-10T03:07:20;7.47;;;5.68;;
26377;SDS011;14078;50.974;6.786;2023-06-10T03:09:48;7.35;;;6.70;;
26377;SDS011;14078;50.974;6.786;2023-06-10T03:12:14;6.88;;;6.18;;
26377;SDS011;14078;50.974;6.786;2023-06-10T03:14:41;9.20;;;6.53;;
26377;SDS011;14078;50.974;6.786;2023-06-10T03:17:08;7.97;;;6.47;;
26377;SDS011;14078;50.974;6.786;2023-06-10T03:19:36;7.95;;;6.97;;
26377;SDS011;14078;50.974;6.786;2023-06-10T03:22:07;7.05;;;6.45;;
26377;SDS011;14078;50.974;6.786;2023-06-10T03:24:35;8.55;;;7.70;;
26377;SDS011;14078;50.974;6.786;2023-06-10T03:27:05;8.25;;;7.45;;
26377;SDS011;14078;50.974;6.786;2023-06-10T03:29:32;8.93;;;7.15;;
26377;SDS011;14078;50.974;6.786;2023-06-10T03:31:59;11.75;;;7.45;;
26377;SDS011;14078;50.974;6.786;2023-06-10T03:34:25;8.02;;;6.57;;
26377;SDS011;14078;50.974;6.786;2023-06-10T03:36:54;7.00;;;6.30;;
26377;SDS011;14078;50.974;6.786;2023-06-10T03:39:20;8.07;;;6.40;;
26377;SDS011;14078;50.974;6.786;2023-06-10T03:41:48;7.38;;;6.57;;
26377;SDS011;14078;50.974;6.786;2023-06-10T03:44:15;7.50;;;6.35;;
26377;SDS011;14078;50.974;6.786;2023-06-10T03:46:41;7.57;;;6.38;;
26377;SDS011;14078;50.974;6.786;2023-06-10T03:49:08;6.95;;;6.35;;
26377;SDS011;14078;50.974;6.786;2023-06-10T03:51:35;6.70;;;6.07;;
26377;SDS011;14078;50.974;6.786;2023-06-10T03:54:03;6.70;;;6.10;;
26377;SDS011;14078;50.974;6.786;2023-06-10T03:56:30;7.80;;;6.03;;
26377;SDS011;14078;50.974;6.786;2023-06-10T03:58:57;7.78;;;6.97;;
26377;SDS011;14078;50.974;6.786;2023-06-10T04:01:25;7.75;;;7.00;;
26377;SDS011;14078;50.974;6.786;2023-06-10T04:03:52;7.55;;;6.85;;
26377;SDS011;14078;50.974;6.786;2023-06-10T04:06:19;7.85;;;6.97;;
26377;SDS011;14078;50.974;6.786;2023-06-10T04:08:47;9.00;;;7.60;;
26377;SDS011;14078;50.974;6.786;2023-06-10T04:11:15;8.18;;;6.85;;
26377;SDS011;14078;50.974;6.786;2023-06-10T04:13:42;9.15;;;6.97;;
26377;SDS011;14078;50.974;6.786;2023-06-10T04:16:09;8.80;;;6.90;;
26377;SDS011;14078;50.974;6.786;2023-06-10T04:18:35;6.78;;;6.07;;
26377;SDS011;14078;50.974;6.786;2023-06-10T04:21:02;9.38;;;5.95;;
26377;SDS011;14078;50.974;6.786;2023-06-10T04:23:29;6.45;;;5.82;;
26377;SDS011;14078;50.974;6.786;2023-06-10T04:25:55;7.25;;;6.07;;
26377;SDS011;14078;50.974;6.786;2023-06-10T04:28:23;8.82;;;6.88;;
26377;SDS011;14078;50.974;6.786;2023-06-10T04:30:50;8.18;;;7.25;;
26377;SDS011;14078;50.974;6.786;2023-06-10T04:33:17;11.18;;;6.65;;
26377;SDS011;14078;50.974;6.786;2023-06-10T04:35:43;6.80;;;6.10;;
26377;SDS011;14078;50.974;6.786;2023-06-10T04:38:12;8.18;;;6.55;;
26377;SDS011;14078;50.974;6.786;2023-06-10T04:40:39;7.50;;;6.47;;
26377;SDS011;14078;50.974;6.786;2023-06-10T04:43:06;8.07;;;7.22;;
26377;SDS011;14078;50.974;6.786;2023-06-10T04:45:34;9.95;;;7.78;;
26377;SDS011;14078;50.974;6.786;2023-06-10T04:48:00;7.93;;;7.13;;
26377;SDS011;14078;50.974;6.786;2023-06-10T04:50:28;10.68;;;7.18;;
26377;SDS011;14078;50.974;6.786;2023-06-10T04:52:54;11.45;;;7.43;;
26377;SDS011;14078;50.974;6.786;2023-06-10T04:55:22;8.95;;;7.15;;
26377;SDS011;14078;50.974;6.786;2023-06-10T04:57:48;7.88;;;7.03;;
26377;SDS011;14078;50.974;6.786;2023-06-10T05:00:16;8.43;;;7.63;;
26377;SDS011;14078;50.974;6.786;2023-06-10T05:02:44;7.85;;;6.95;;
26377;SDS011;14078;50.974;6.786;2023-06-10T05:05:14;7.55;;;6.85;;
26377;SDS011;14078;50.974;6.786;2023-06-10T05:07:41;8.23;;;7.43;;
26377;SDS011;14078;50.974;6.786;2023-06-10T05:10:08;10.05;;;7.63;;
26377;SDS011;14078;50.974;6.786;2023-06-10T05:12:37;7.38;;;6.68;;
26377;SDS011;14078;50.974;6.786;2023-06-10T05:15:04;7.75;;;6.88;;
26377;SDS011;14078;50.974;6.786;2023-06-10T05:17:31;7.32;;;6.60;;
26377;SDS011;14078;50.974;6.786;2023-06-10T05:20:01;9.82;;;7.00;;
26377;SDS011;14078;50.974;6.786;2023-06-10T05:22:28;7.82;;;6.75;;
26377;SDS011;14078;50.974;6.786;2023-06-10T05:24:54;8.15;;;7.22;;
26377;SDS011;14078;50.974;6.786;2023-06-10T05:27:21;8.48;;;7.57;;
26377;SDS011;14078;50.974;6.786;2023-06-10T05:29:49;8.23;;;7.47;;
26377;SDS011;14078;50.974;6.786;2023-06-10T05:32:16;8.80;;;7.85;;
26377;SDS011;14078;50.974;6.786;2023-06-10T05:34:43;8.38;;;7.50;;
26377;SDS011;14078;50.974;6.786;2023-06-10T05:37:11;7.78;;;7.07;;
26377;SDS011;14078;50.974;6.786;2023-06-10T05:39:38;9.15;;;8.30;;
26377;SDS011;14078;50.974;6.786;2023-06-10T05:42:06;7.68;;;6.97;;
26377;SDS011;14078;50.974;6.786;2023-06-10T05:44:34;9.88;;;7.32;;
26377;SDS011;14078;50.974;6.786;2023-06-10T05:47:00;8.43;;;7.43;;
26377;SDS011;14078;50.974;6.786;2023-06-10T05:49:27;9.80;;;7.45;;
26377;SDS011;14078;50.974;6.786;2023-06-10T05:51:54;8.32;;;7.20;;
26377;SDS011;14078;50.974;6.786;2023-06-10T05:54:24;6.88;;;6.28;;
26377;SDS011;14078;50.974;6.786;2023-06-10T05:56:51;7.25;;;6.55;;
26377;SDS011;14078;50.974;6.786;2023-06-10T05:59:18;6.82;;;6.20;;
26377;SDS011;14078;50.974;6.786;2023-06-10T06:01:45;7.65;;;6.38;;
26377;SDS011;14078;50.974;6.786;2023-06-10T06:04:11;7.60;;;6.80;;
26377;SDS011;14078;50.974;6.786;2023-06-10T06:06:38;7.30;;;6.60;;
26377;SDS011;14078;50.974;6.786;2023-06-10T06:09:05;6.75;;;6.13;;
26377;SDS011;14078;50.974;6.786;2023-06-10T06:11:34;6.20;;;5.65;;
26377;SDS011;14078;50.974;6.786;2023-06-10T06:14:01;6.47;;;5.88;;
26377;SDS011;14078;50.974;6.786;2023-06-10T06:16:27;6.88;;;6.18;;
26377;SDS011;14078;50.974;6.786;2023-06-10T06:18:54;6.68;;;6.07;;
26377;SDS011;14078;50.974;6.786;2023-06-10T06:21:21;9.32;;;6.30;;
26377;SDS011;14078;50.974;6.786;2023-06-10T06:23:47;5.72;;;5.13;;
26377;SDS011;14078;50.974;6.786;2023-06-10T06:26:14;10.15;;;6.78;;
26377;SDS011;14078;50.974;6.786;2023-06-10T06:28:42;7.47;;;6.28;;
26377;SDS011;14078;50.974;6.786;2023-06-10T06:31:08;8.00;;;6.32;;
26377;SDS011;14078;50.974;6.786;2023-06-10T06:33:35;6.80;;;6.18;;
26377;SDS011;14078;50.974;6.786;2023-06-10T06:36:02;8.88;;;5.70;;
26377;SDS011;14078;50.974;6.786;2023-06-10T06:38:29;6.28;;;5.68;;
26377;SDS011;14078;50.974;6.786;2023-06-10T06:40:56;6.35;;;5.30;;
26377;SDS011;14078;50.974;6.786;2023-06-10T06:43:27;8.55;;;6.38;;
26377;SDS011;14078;50.974;6.786;2023-06-10T06:45:55;5.80;;;5.25;;
26377;SDS011;14078;50.974;6.786;2023-06-10T06:48:22;7.72;;;5.65;;
26377;SDS011;14078;50.974;6.786;2023-06-10T06:50:49;6.10;;;5.35;;
26377;SDS011;14078;50.974;6.786;2023-06-10T06:53:15;5.57;;;5.07;;
26377;SDS011;14078;50.974;6.786;2023-06-10T06:55:42;6.68;;;5.32;;
26377;SDS011;14078;50.974;6.786;2023-06-10T06:58:09;5.40;;;4.65;;
26377;SDS011;14078;50.974;6.786;2023-06-10T07:00:35;6.10;;;5.05;;
26377;SDS011;14078;50.974;6.786;2023-06-10T07:03:03;4.90;;;4.13;;
26377;SDS011;14078;50.974;6.786;2023-06-10T07:05:30;5.43;;;4.30;;
26377;SDS011;14078;50.974;6.786;2023-06-10T07:07:57;4.28;;;3.88;;
26377;SDS011;14078;50.974;6.786;2023-06-10T07:10:24;3.25;;;3.00;;
26377;SDS011;14078;50.974;6.786;2023-06-10T07:12:51;3.95;;;3.58;;
26377;SDS011;14078;50.974;6.786;2023-06-10T07:15:18;3.80;;;3.28;;
26377;SDS011;14078;50.974;6.786;2023-06-10T07:17:45;4.10;;;3.70;;
26377;SDS011;14078;50.974;6.786;2023-06-10T07:20:13;3.47;;;3.17;;
26377;SDS011;14078;50.974;6.786;2023-06-10T07:22:40;3.92;;;3.42;;
26377;SDS011;14078;50.974;6.786;2023-06-10T07:25:07;4.72;;;3.42;;
26377;SDS011;14078;50.974;6.786;2023-06-10T07:27:34;4.20;;;3.75;;
26377;SDS011;14078;50.974;6.786;2023-06-10T07:30:02;4.57;;;3.83;;
26377;SDS011;14078;50.974;6.786;2023-06-10T07:32:29;4.43;;;3.70;;
26377;SDS011;14078;50.974;6.786;2023-06-10T07:34:56;3.92;;;3.47;;
26377;SDS011;14078;50.974;6.786;2023-06-10T07:37:24;4.70;;;3.60;;
26377;SDS011;14078;50.974;6.786;2023-06-10T07:39:51;4.70;;;4.07;;
26377;SDS011;14078;50.974;6.786;2023-06-10T07:42:18;3.47;;;3.17;;
26377;SDS011;14078;50.974;6.786;2023-06-10T07:44:44;3.72;;;3.42;;
26377;SDS011;14078;50.974;6.786;2023-06-10T07:47:11;4.18;;;3.78;;
26377;SDS011;14078;50.974;6.786;2023-06-10T07:49:38;3.88;;;3.53;;
26377;SDS011;14078;50.974;6.786;2023-06-10T07:52:06;4.57;;;4.07;;
26377;SDS011;14078;50.974;6.786;2023-06-10T07:54:34;5.07;;;3.60;;
26377;SDS011;14078;50.974;6.786;2023-06-10T07:57:01;5.72;;;3.83;;
26377;SDS011;14078;50.974;6.786;2023-06-10T07:59:28;3.55;;;3.25;;
26377;SDS011;14078;50.974;6.786;2023-06-10T08:01:55;3.67;;;2.90;;
26377;SDS011;14078;50.974;6.786;2023-06-10T08:04:21;3.83;;;3.40;;
26377;SDS011;14078;50.974;6.786;2023-06-10T08:06:48;4.35;;;3.90;;
26377;SDS011;14078;50.974;6.786;2023-06-10T08:09:15;4.40;;;4.00;;
26377;SDS011;14078;50.974;6.786;2023-06-10T08:11:44;3.73;;;3.40;;
26377;SDS011;14078;50.974;6.786;2023-06-10T08:14:12;3.78;;;3.47;;
26377;SDS011;14078;50.974;6.786;2023-06-10T08:16:39;4.13;;;3.65;;
26377;SDS011;14078;50.974;6.786;2023-06-10T08:19:06;6.70;;;3.78;;
26377;SDS011;14078;50.974;6.786;2023-06-10T08:21:34;3.75;;;3.13;;
26377;SDS011;14078;50.974;6.786;2023-06-10T08:24:01;4.25;;;3.72;;
26377;SDS011;14078;50.974;6.786;2023-06-10T08:26:28;6.03;;;4.13;;
26377;SDS011;14078;50.974;6.786;2023-06-10T08:28:56;3.85;;;3.45;;
26377;SDS011;14078;50.974;6.786;2023-06-10T08:31:23;3.90;;;3.50;;
26377;SDS011;14078;50.974;6.786;2023-06-10T08:33:49;4.50;;;4.00;;
26377;SDS011;14078;50.974;6.786;2023-06-10T08:36:16;4.10;;;3.80;;
26377;SDS011;14078;50.974;6.786;2023-06-10T08:38:43;4.90;;;4.40;;
26377;SDS011;14078;50.974;6.786;2023-06-10T08:41:09;4.50;;;4.10;;
26377;SDS011;14078;50.974;6.786;2023-06-10T08:43:42;6.18;;;4.18;;
26377;SDS011;14078;50.974;6.786;2023-06-10T08:46:12;3.80;;;3.50;;
26377;SDS011;14078;50.974;6.786;2023-06-10T08:48:41;5.13;;;4.15;;
26377;SDS011;14078;50.974;6.786;2023-06-10T08:51:10;8.90;;;4.55;;
26377;SDS011;14078;50.974;6.786;2023-06-10T08:53:37;4.93;;;4.50;;
26377;SDS011;14078;50.974;6.786;2023-06-10T08:56:10;4.32;;;3.75;;
26377;SDS011;14078;50.974;6.786;2023-06-10T08:58:39;5.00;;;4.50;;
26377;SDS011;14078;50.974;6.786;2023-06-10T09:01:06;4.82;;;4.32;;
26377;SDS011;14078;50.974;6.786;2023-06-10T09:03:35;5.95;;;3.90;;
26377;SDS011;14078;50.974;6.786;2023-06-10T09:06:04;4.47;;;3.70;;
26377;SDS011;14078;50.974;6.786;2023-06-10T09:08:31;4.90;;;4.07;;
26377;SDS011;14078;50.974;6.786;2023-06-10T09:10:59;4.53;;;4.13;;
26377;SDS011;14078;50.974;6.786;2023-06-10T09:13:26;4.35;;;3.95;;
26377;SDS011;14078;50.974;6.786;2023-06-10T09:15:53;4.38;;;3.97;;
26377;SDS011;14078;50.974;6.786;2023-06-10T09:18:21;5.03;;;4.60;;
26377;SDS011;14078;50.974;6.786;2023-06-10T09:20:49;4.00;;;3.70;;
26377;SDS011;14078;50.974;6.786;2023-06-10T09:23:16;4.70;;;4.15;;
26377;SDS011;14078;50.974;6.786;2023-06-10T09:25:43;4.93;;;4.47;;
26377;SDS011;14078;50.974;6.786;2023-06-10T09:28:12;5.13;;;4.72;;
26377;SDS011;14078;50.974;6.786;2023-06-10T09:30:40;6.85;;;4.70;;
26377;SDS011;14078;50.974;6.786;2023-06-10T09:33:09;7.63;;;4.38;;
26377;SDS011;14078;50.974;6.786;2023-06-10T09:35:37;5.22;;;4.35;;
26377;SDS011;14078;50.974;6.786;2023-06-10T09:38:13;4.68;;;4.28;;
26377;SDS011;14078;50.974;6.786;2023-06-10T09:40:48;5.82;;;4.68;;
26377;SDS011;14078;50.974;6.786;2023-06-10T09:43:16;4.95;;;4.50;;
26377;SDS011;14078;50.974;6.786;2023-06-10T09:45:43;3.83;;;3.53;;
26377;SDS011;14078;50.974;6.786;2023-06-10T09:48:09;4.63;;;4.22;;
26377;SDS011;14078;50.974;6.786;2023-06-10T09:50:41;4.80;;;4.40;;
26377;SDS011;14078;50.974;6.786;2023-06-10T09:53:08;4.78;;;4.35;;
26377;SDS011;14078;50.974;6.786;2023-06-10T09:55:36;4.70;;;4.30;;
26377;SDS011;14078;50.974;6.786;2023-06-10T09:58:04;5.18;;;4.68;;
26377;SDS011;14078;50.974;6.786;2023-06-10T10:00:31;5.20;;;4.70;;
26377;SDS011;14078;50.974;6.786;2023-06-10T10:02:58;4.43;;;4.03;;
26377;SDS011;14078;50.974;6.786;2023-06-10T10:05:26;4.93;;;4.53;;
26377;SDS011;14078;50.974;6.786;2023-06-10T10:07:54;4.82;;;4.45;;
26377;SDS011;14078;50.974;6.786;2023-06-10T10:10:21;4.80;;;4.35;;
26377;SDS011;14078;50.974;6.786;2023-06-10T10:12:52;5.30;;;4.80;;
26377;SDS011;14078;50.974;6.786;2023-06-10T10:15:22;4.72;;;4.32;;
26377;SDS011;14078;50.974;6.786;2023-06-10T10:17:52;5.28;;;4.80;;
26377;SDS011;14078;50.974;6.786;2023-06-10T10:20:21;5.07;;;4.60;;
26377;SDS011;14078;50.974;6.786;2023-06-10T10:22:51;4.82;;;4.43;;
26377;SDS011;14078;50.974;6.786;2023-06-10T10:25:23;4.70;;;4.30;;
26377;SDS011;14078;50.974;6.786;2023-06-10T10:27:54;4.97;;;4.57;;
26377;SDS011;14078;50.974;6.786;2023-06-10T10:30:25;4.97;;;4.47;;
26377;SDS011;14078;50.974;6.786;2023-06-10T10:32:58;5.15;;;4.53;;
26377;SDS011;14078;50.974;6.786;2023-06-10T10:35:31;4.55;;;4.13;;
26377;SDS011;14078;50.974;6.786;2023-06-10T10:40:30;4.72;;;4.25;;
26377;SDS011;14078;50.974;6.786;2023-06-10T10:43:00;4.88;;;4.47;;
26377;SDS011;14078;50.974;6.786;2023-06-10T10:47:55;4.65;;;4.25;;
26377;SDS011;14078;50.974;6.786;2023-06-10T10:50:22;6.18;;;4.50;;
26377;SDS011;14078;50.974;6.786;2023-06-10T10:52:53;5.95;;;4.50;;
26377;SDS011;14078;50.974;6.786;2023-06-10T10:55:21;5.20;;;4.43;;
26377;SDS011;14078;50.974;6.786;2023-06-10T10:57:53;4.97;;;4.57;;
26377;SDS011;14078;50.974;6.786;2023-06-10T11:00:25;4.97;;;4.57;;
26377;SDS011;14078;50.974;6.786;2023-06-10T11:02:54;4.70;;;4.30;;
26377;SDS011;14078;50.974;6.786;2023-06-10T11:05:30;4.57;;;4.18;;
26377;SDS011;14078;50.974;6.786;2023-06-10T11:08:02;5.00;;;4.60;;
26377;SDS011;14078;50.974;6.786;2023-06-10T11:10:29;4.65;;;4.25;;
26377;SDS011;14078;50.974;6.786;2023-06-10T11:12:57;5.70;;;4.88;;
26377;SDS011;14078;50.974;6.786;2023-06-10T11:15:24;4.38;;;4.07;;
26377;SDS011;14078;50.974;6.786;2023-06-10T11:18:06;5.43;;;5.03;;
26377;SDS011;14078;50.974;6.786;2023-06-10T11:20:44;4.70;;;4.30;;
26377;SDS011;14078;50.974;6.786;2023-06-10T11:23:29;4.38;;;3.92;;
26377;SDS011;14078;50.974;6.786;2023-06-10T11:26:10;5.50;;;5.03;;
26377;SDS011;14078;50.974;6.786;2023-06-10T11:28:37;5.60;;;4.68;;
26377;SDS011;14078;50.974;6.786;2023-06-10T11:31:06;5.53;;;5.03;;
26377;SDS011;14078;50.974;6.786;2023-06-10T11:33:33;9.10;;;4.35;;
26377;SDS011;14078;50.974;6.786;2023-06-10T11:36:00;4.60;;;4.18;;
26377;SDS011;14078;50.974;6.786;2023-06-10T11:38:26;5.68;;;4.90;;
26377;SDS011;14078;50.974;6.786;2023-06-10T11:40:55;5.28;;;4.88;;
26377;SDS011;14078;50.974;6.786;2023-06-10T11:43:22;5.18;;;4.68;;
26377;SDS011;14078;50.974;6.786;2023-06-10T11:45:53;6.93;;;4.40;;
26377;SDS011;14078;50.974;6.786;2023-06-10T11:48:21;5.20;;;4.70;;
26377;SDS011;14078;50.974;6.786;2023-06-10T11:50:48;4.57;;;4.18;;
26377;SDS011;14078;50.974;6.786;2023-06-10T11:53:14;4.53;;;4.13;;
26377;SDS011;14078;50.974;6.786;2023-06-10T11:55:43;5.15;;;4.65;;
26377;SDS011;14078;50.974;6.786;2023-06-10T11:58:14;5.30;;;4.80;;
26377;SDS011;14078;50.974;6.786;2023-06-10T12:00:44;5.38;;;4.88;;
26377;SDS011;14078;50.974;6.786;2023-06-10T12:03:11;4.65;;;4.25;;
26377;SDS011;14078;50.974;6.786;2023-06-10T12:05:40;7.47;;;4.57;;
26377;SDS011;14078;50.974;6.786;2023-06-10T12:08:09;5.20;;;4.70;;
26377;SDS011;14078;50.974;6.786;2023-06-10T12:10:40;4.53;;;4.13;;
26377;SDS011;14078;50.974;6.786;2023-06-10T12:13:08;4.85;;;4.38;;
26377;SDS011;14078;50.974;6.786;2023-06-10T12:15:35;5.35;;;4.82;;
26377;SDS011;14078;50.974;6.786;2023-06-10T12:18:01;4.75;;;4.35;;
26377;SDS011;14078;50.974;6.786;2023-06-10T12:20:29;4.82;;;4.10;;
26377;SDS011;14078;50.974;6.786;2023-06-10T12:22:59;4.95;;;4.45;;
26377;SDS011;14078;50.974;6.786;2023-06-10T12:25:27;4.63;;;4.25;;
26377;SDS011;14078;50.974;6.786;2023-06-10T12:27:55;4.53;;;4.13;;
26377;SDS011;14078;50.974;6.786;2023-06-10T12:30:24;5.00;;;3.78;;
26377;SDS011;14078;50.974;6.786;2023-06-10T12:32:52;4.10;;;3.70;;
26377;SDS011;14078;50.974;6.786;2023-06-10T12:35:19;4.72;;;4.18;;
26377;SDS011;14078;50.974;6.786;2023-06-10T12:37:55;3.90;;;3.60;;
26377;SDS011;14078;50.974;6.786;2023-06-10T12:40:29;3.88;;;3.58;;
26377;SDS011;14078;50.974;6.786;2023-06-10T12:42:57;4.47;;;4.07;;
26377;SDS011;14078;50.974;6.786;2023-06-10T12:45:27;3.92;;;3.63;;
26377;SDS011;14078;50.974;6.786;2023-06-10T12:48:03;4.57;;;4.18;;
26377;SDS011;14078;50.974;6.786;2023-06-10T12:50:30;4.22;;;3.92;;
26377;SDS011;14078;50.974;6.786;2023-06-10T12:52:57;4.40;;;4.10;;
26377;SDS011;14078;50.974;6.786;2023-06-10T12:55:25;4.57;;;4.18;;
26377;SDS011;14078;50.974;6.786;2023-06-10T12:57:53;4.15;;;3.70;;
26377;SDS011;14078;50.974;6.786;2023-06-10T13:00:20;4.13;;;3.47;;
26377;SDS011;14078;50.974;6.786;2023-06-10T13:02:48;4.00;;;3.67;;
26377;SDS011;14078;50.974;6.786;2023-06-10T13:05:15;4.03;;;3.72;;
26377;SDS011;14078;50.974;6.786;2023-06-10T13:07:43;4.45;;;4.05;;
26377;SDS011;14078;50.974;6.786;2023-06-10T13:10:09;3.78;;;3.20;;
26377;SDS011;14078;50.974;6.786;2023-06-10T13:12:36;3.92;;;3.63;;
26377;SDS011;14078;50.974;6.786;2023-06-10T13:15:05;4.88;;;3.97;;
26377;SDS011;14078;50.974;6.786;2023-06-10T13:17:33;3.95;;;3.65;;
26377;SDS011;14078;50.974;6.786;2023-06-10T13:20:01;4.70;;;3.67;;
26377;SDS011;14078;50.974;6.786;2023-06-10T13:24:57;4.47;;;4.07;;
26377;SDS011;14078;50.974;6.786;2023-06-10T13:27:24;3.70;;;3.40;;
26377;SDS011;14078;50.974;6.786;2023-06-10T13:29:52;4.35;;;3.90;;
26377;SDS011;14078;50.974;6.786;2023-06-10T13:32:20;4.25;;;3.67;;
26377;SDS011;14078;50.974;6.786;2023-06-10T13:34:46;3.67;;;3.40;;
26377;SDS011;14078;50.974;6.786;2023-06-10T13:37:14;3.95;;;3.63;;
26377;SDS011;14078;50.974;6.786;2023-06-10T13:39:42;6.70;;;4.73;;
26377;SDS011;14078;50.974;6.786;2023-06-10T13:42:08;4.45;;;4.05;;
26377;SDS011;14078;50.974;6.786;2023-06-10T13:44:36;4.55;;;4.10;;
26377;SDS011;14078;50.974;6.786;2023-06-10T13:47:02;3.88;;;3.58;;
26377;SDS011;14078;50.974;6.786;2023-06-10T13:49:31;4.10;;;3.70;;
26377;SDS011;14078;50.974;6.786;2023-06-10T13:51:57;3.73;;;3.43;;
26377;SDS011;14078;50.974;6.786;2023-06-10T13:54:24;4.22;;;3.85;;
26377;SDS011;14078;50.974;6.786;2023-06-10T13:56:52;4.30;;;3.90;;
26377;SDS011;14078;50.974;6.786;2023-06-10T13:59:18;3.72;;;3.42;;
26377;SDS011;14078;50.974;6.786;2023-06-10T14:01:45;4.20;;;3.90;;
26377;SDS011;14078;50.974;6.786;2023-06-10T14:04:12;3.80;;;3.50;;
26377;SDS011;14078;50.974;6.786;2023-06-10T14:06:40;3.97;;;3.67;;
26377;SDS011;14078;50.974;6.786;2023-06-10T14:09:07;3.33;;;3.07;;
26377;SDS011;14078;50.974;6.786;2023-06-10T14:11:34;4.28;;;3.60;;
26377;SDS011;14078;50.974;6.786;2023-06-10T14:14:01;3.30;;;3.00;;
26377;SDS011;14078;50.974;6.786;2023-06-10T14:16:27;3.17;;;2.92;;
26377;SDS011;14078;50.974;6.786;2023-06-10T14:18:54;5.10;;;2.90;;
26377;SDS011;14078;50.974;6.786;2023-06-10T14:21:21;4.95;;;3.20;;
26377;SDS011;14078;50.974;6.786;2023-06-10T14:23:49;3.83;;;3.53;;
26377;SDS011;14078;50.974;6.786;2023-06-10T14:26:17;3.58;;;3.13;;
26377;SDS011;14078;50.974;6.786;2023-06-10T14:28:44;3.60;;;3.30;;
26377;SDS011;14078;50.974;6.786;2023-06-10T14:31:11;3.03;;;2.53;;
26377;SDS011;14078;50.974;6.786;2023-06-10T14:33:37;3.15;;;2.75;;
26377;SDS011;14078;50.974;6.786;2023-06-10T14:36:04;3.70;;;3.40;;
26377;SDS011;14078;50.974;6.786;2023-06-10T14:38:31;4.75;;;2.80;;
26377;SDS011;14078;50.974;6.786;2023-06-10T14:40:59;5.72;;;2.92;;
26377;SDS011;14078;50.974;6.786;2023-06-10T14:43:26;3.33;;;3.00;;
26377;SDS011;14078;50.974;6.786;2023-06-10T14:45:52;3.22;;;2.97;;
26377;SDS011;14078;50.974;6.786;2023-06-10T14:48:21;2.90;;;2.60;;
26377;SDS011;14078;50.974;6.786;2023-06-10T14:50:48;2.60;;;2.40;;
26377;SDS011;14078;50.974;6.786;2023-06-10T14:53:16;3.00;;;2.78;;
26377;SDS011;14078;50.974;6.786;2023-06-10T14:55:42;3.35;;;2.72;;
26377;SDS011;14078;50.974;6.786;2023-06-10T14:58:10;2.95;;;2.75;;
26377;SDS011;14078;50.974;6.786;2023-06-10T15:00:37;3.17;;;2.97;;
26377;SDS011;14078;50.974;6.786;2023-06-10T15:03:04;3.88;;;2.40;;